sensor_id;sensor_type;location;lat;lon;timestamp;P1;durP1;ratioP1;P2;durP2;ratioP2
59300;SDS011;45073;52.740;6.784;2023-03-21T00:00:44;39.75;;;22.42;;
59300;SDS011;45073;52.740;6.784;2023-03-21T00:03:11;41.45;;;23.80;;
59300;SDS011;45073;52.740;6.784;2023-03-21T00:05:38;32.80;;;21.17;;
59300;SDS011;45073;52.740;6.784;2023-03-21T00:08:09;37.88;;;21.45;;
59300;SDS011;45073;52.740;6.784;2023-03-21T00:10:35;39.72;;;22.38;;
59300;SDS011;45073;52.740;6.784;2023-03-21T00:13:01;39.60;;;23.33;;
59300;SDS011;45073;52.740;6.784;2023-03-21T00:15:28;42.53;;;24.05;;
59300;SDS011;45073;52.740;6.784;2023-03-21T00:17:54;41.13;;;22.98;;
59300;SDS011;45073;52.740;6.784;2023-03-21T00:20:35;35.55;;;23.50;;
59300;SDS011;45073;52.740;6.784;2023-03-21T00:23:02;37.85;;;23.00;;
59300;SDS011;45073;52.740;6.784;2023-03-21T00:25:28;40.03;;;22.52;;
59300;SDS011;45073;52.740;6.784;2023-03-21T00:27:56;37.05;;;23.13;;
59300;SDS011;45073;52.740;6.784;2023-03-21T00:30:21;37.53;;;23.15;;
59300;SDS011;45073;52.740;6.784;2023-03-21T00:32:47;36.95;;;22.60;;
59300;SDS011;45073;52.740;6.784;2023-03-21T00:35:13;39.42;;;22.42;;
59300;SDS011;45073;52.740;6.784;2023-03-21T00:37:40;56.50;;;25.48;;
59300;SDS011;45073;52.740;6.784;2023-03-21T00:40:06;38.03;;;23.30;;
59300;SDS011;45073;52.740;6.784;2023-03-21T00:42:34;46.00;;;24.92;;
59300;SDS011;45073;52.740;6.784;2023-03-21T00:45:01;41.55;;;23.33;;
59300;SDS011;45073;52.740;6.784;2023-03-21T00:47:28;42.25;;;25.70;;
59300;SDS011;45073;52.740;6.784;2023-03-21T00:49:55;39.20;;;23.20;;
59300;SDS011;45073;52.740;6.784;2023-03-21T00:52:21;38.05;;;23.33;;
59300;SDS011;45073;52.740;6.784;2023-03-21T00:54:47;44.65;;;23.63;;
59300;SDS011;45073;52.740;6.784;2023-03-21T00:57:13;38.42;;;22.92;;
59300;SDS011;45073;52.740;6.784;2023-03-21T00:59:38;33.17;;;21.33;;
59300;SDS011;45073;52.740;6.784;2023-03-21T01:02:04;43.97;;;25.23;;
59300;SDS011;45073;52.740;6.784;2023-03-21T01:04:31;41.78;;;23.17;;
59300;SDS011;45073;52.740;6.784;2023-03-21T01:06:58;40.88;;;22.08;;
59300;SDS011;45073;52.740;6.784;2023-03-21T01:09:24;40.60;;;23.48;;
59300;SDS011;45073;52.740;6.784;2023-03-21T01:11:50;38.75;;;23.30;;
59300;SDS011;45073;52.740;6.784;2023-03-21T01:14:17;40.78;;;24.73;;
59300;SDS011;45073;52.740;6.784;2023-03-21T01:16:44;35.17;;;21.73;;
59300;SDS011;45073;52.740;6.784;2023-03-21T01:19:14;35.55;;;22.23;;
59300;SDS011;45073;52.740;6.784;2023-03-21T01:21:42;33.85;;;21.23;;
59300;SDS011;45073;52.740;6.784;2023-03-21T01:24:08;35.80;;;22.25;;
59300;SDS011;45073;52.740;6.784;2023-03-21T01:26:34;37.78;;;22.88;;
59300;SDS011;45073;52.740;6.784;2023-03-21T01:29:01;30.13;;;19.27;;
59300;SDS011;45073;52.740;6.784;2023-03-21T01:31:27;32.78;;;20.13;;
59300;SDS011;45073;52.740;6.784;2023-03-21T01:33:53;33.17;;;21.30;;
59300;SDS011;45073;52.740;6.784;2023-03-21T01:36:19;31.48;;;19.15;;
59300;SDS011;45073;52.740;6.784;2023-03-21T01:38:46;32.20;;;20.48;;
59300;SDS011;45073;52.740;6.784;2023-03-21T01:41:18;30.10;;;17.33;;
59300;SDS011;45073;52.740;6.784;2023-03-21T01:43:50;29.05;;;17.77;;
59300;SDS011;45073;52.740;6.784;2023-03-21T01:51:43;29.67;;;19.33;;
59300;SDS011;45073;52.740;6.784;2023-03-21T01:54:28;30.38;;;18.83;;
59300;SDS011;45073;52.740;6.784;2023-03-21T01:56:56;28.65;;;17.88;;
59300;SDS011;45073;52.740;6.784;2023-03-21T01:59:33;31.48;;;18.45;;
59300;SDS011;45073;52.740;6.784;2023-03-21T02:02:03;27.77;;;18.65;;
59300;SDS011;45073;52.740;6.784;2023-03-21T02:04:32;29.20;;;17.77;;
59300;SDS011;45073;52.740;6.784;2023-03-21T02:07:01;26.05;;;16.02;;
59300;SDS011;45073;52.740;6.784;2023-03-21T02:09:29;28.48;;;18.00;;
59300;SDS011;45073;52.740;6.784;2023-03-21T02:11:58;28.15;;;17.52;;
59300;SDS011;45073;52.740;6.784;2023-03-21T02:14:25;25.20;;;16.65;;
59300;SDS011;45073;52.740;6.784;2023-03-21T02:16:58;22.55;;;14.65;;
59300;SDS011;45073;52.740;6.784;2023-03-21T02:19:53;25.90;;;16.95;;
59300;SDS011;45073;52.740;6.784;2023-03-21T02:44:43;25.98;;;14.60;;
59300;SDS011;45073;52.740;6.784;2023-03-21T02:47:16;23.42;;;13.93;;
59300;SDS011;45073;52.740;6.784;2023-03-21T02:52:33;21.58;;;13.30;;
59300;SDS011;45073;52.740;6.784;2023-03-21T02:55:01;21.98;;;13.77;;
59300;SDS011;45073;52.740;6.784;2023-03-21T02:57:28;21.85;;;12.73;;
59300;SDS011;45073;52.740;6.784;2023-03-21T02:59:55;22.25;;;13.18;;
59300;SDS011;45073;52.740;6.784;2023-03-21T03:02:23;22.02;;;14.23;;
59300;SDS011;45073;52.740;6.784;2023-03-21T03:04:51;21.85;;;13.55;;
59300;SDS011;45073;52.740;6.784;2023-03-21T03:07:24;21.77;;;13.50;;
59300;SDS011;45073;52.740;6.784;2023-03-21T03:12:40;22.37;;;13.37;;
59300;SDS011;45073;52.740;6.784;2023-03-21T03:15:24;23.23;;;13.35;;
59300;SDS011;45073;52.740;6.784;2023-03-21T03:18:11;21.50;;;14.05;;
59300;SDS011;45073;52.740;6.784;2023-03-21T03:26:08;24.85;;;14.70;;
59300;SDS011;45073;52.740;6.784;2023-03-21T03:28:43;26.00;;;15.63;;
59300;SDS011;45073;52.740;6.784;2023-03-21T03:31:13;23.70;;;14.65;;
59300;SDS011;45073;52.740;6.784;2023-03-21T03:36:14;24.60;;;15.70;;
59300;SDS011;45073;52.740;6.784;2023-03-21T03:38:42;23.90;;;15.27;;
59300;SDS011;45073;52.740;6.784;2023-03-21T03:41:18;24.73;;;15.63;;
59300;SDS011;45073;52.740;6.784;2023-03-21T03:43:50;28.40;;;15.90;;
59300;SDS011;45073;52.740;6.784;2023-03-21T03:46:25;24.73;;;15.55;;
59300;SDS011;45073;52.740;6.784;2023-03-21T03:48:53;23.85;;;15.13;;
59300;SDS011;45073;52.740;6.784;2023-03-21T03:51:30;27.42;;;17.42;;
59300;SDS011;45073;52.740;6.784;2023-03-21T03:54:04;26.33;;;16.65;;
59300;SDS011;45073;52.740;6.784;2023-03-21T03:56:34;24.85;;;15.10;;
59300;SDS011;45073;52.740;6.784;2023-03-21T03:59:00;26.90;;;17.30;;
59300;SDS011;45073;52.740;6.784;2023-03-21T04:01:28;25.27;;;15.77;;
59300;SDS011;45073;52.740;6.784;2023-03-21T04:03:54;25.83;;;17.58;;
59300;SDS011;45073;52.740;6.784;2023-03-21T04:06:20;27.80;;;16.60;;
59300;SDS011;45073;52.740;6.784;2023-03-21T04:08:46;28.27;;;17.80;;
59300;SDS011;45073;52.740;6.784;2023-03-21T04:11:12;30.10;;;17.30;;
59300;SDS011;45073;52.740;6.784;2023-03-21T04:13:40;27.30;;;16.48;;
59300;SDS011;45073;52.740;6.784;2023-03-21T04:16:06;27.77;;;17.13;;
59300;SDS011;45073;52.740;6.784;2023-03-21T04:18:32;32.92;;;18.55;;
59300;SDS011;45073;52.740;6.784;2023-03-21T04:20:58;34.65;;;19.52;;
59300;SDS011;45073;52.740;6.784;2023-03-21T04:23:24;31.40;;;18.27;;
59300;SDS011;45073;52.740;6.784;2023-03-21T04:25:50;27.90;;;17.70;;
59300;SDS011;45073;52.740;6.784;2023-03-21T04:28:16;31.77;;;18.60;;
59300;SDS011;45073;52.740;6.784;2023-03-21T04:30:42;34.33;;;19.33;;
59300;SDS011;45073;52.740;6.784;2023-03-21T04:33:08;30.25;;;19.13;;
59300;SDS011;45073;52.740;6.784;2023-03-21T04:35:33;32.33;;;20.70;;
59300;SDS011;45073;52.740;6.784;2023-03-21T04:38:00;33.22;;;19.65;;
59300;SDS011;45073;52.740;6.784;2023-03-21T04:40:26;27.92;;;18.27;;
59300;SDS011;45073;52.740;6.784;2023-03-21T04:42:52;33.35;;;20.73;;
59300;SDS011;45073;52.740;6.784;2023-03-21T04:45:18;33.80;;;19.90;;
59300;SDS011;45073;52.740;6.784;2023-03-21T04:47:44;33.63;;;19.83;;
59300;SDS011;45073;52.740;6.784;2023-03-21T04:50:10;32.08;;;19.25;;
59300;SDS011;45073;52.740;6.784;2023-03-21T04:52:37;31.98;;;19.35;;
59300;SDS011;45073;52.740;6.784;2023-03-21T04:55:03;32.05;;;18.80;;
59300;SDS011;45073;52.740;6.784;2023-03-21T04:57:28;29.90;;;18.70;;
59300;SDS011;45073;52.740;6.784;2023-03-21T04:59:55;32.38;;;18.73;;
59300;SDS011;45073;52.740;6.784;2023-03-21T05:02:20;32.72;;;19.25;;
59300;SDS011;45073;52.740;6.784;2023-03-21T05:04:46;30.98;;;19.98;;
59300;SDS011;45073;52.740;6.784;2023-03-21T05:07:12;33.42;;;19.33;;
59300;SDS011;45073;52.740;6.784;2023-03-21T05:09:37;36.92;;;18.35;;
59300;SDS011;45073;52.740;6.784;2023-03-21T05:12:03;31.08;;;19.30;;
59300;SDS011;45073;52.740;6.784;2023-03-21T05:14:29;33.42;;;19.10;;
59300;SDS011;45073;52.740;6.784;2023-03-21T05:16:55;31.25;;;20.10;;
59300;SDS011;45073;52.740;6.784;2023-03-21T05:19:25;32.22;;;17.38;;
59300;SDS011;45073;52.740;6.784;2023-03-21T05:21:59;28.02;;;17.65;;
59300;SDS011;45073;52.740;6.784;2023-03-21T05:24:28;28.33;;;17.63;;
59300;SDS011;45073;52.740;6.784;2023-03-21T05:26:55;30.60;;;19.73;;
59300;SDS011;45073;52.740;6.784;2023-03-21T05:29:26;28.40;;;17.05;;
59300;SDS011;45073;52.740;6.784;2023-03-21T05:31:56;32.72;;;19.30;;
59300;SDS011;45073;52.740;6.784;2023-03-21T05:34:23;31.95;;;20.77;;
59300;SDS011;45073;52.740;6.784;2023-03-21T05:36:49;31.27;;;19.17;;
59300;SDS011;45073;52.740;6.784;2023-03-21T05:39:15;32.00;;;19.45;;
59300;SDS011;45073;52.740;6.784;2023-03-21T05:41:41;33.15;;;19.25;;
59300;SDS011;45073;52.740;6.784;2023-03-21T05:44:07;32.90;;;19.83;;
59300;SDS011;45073;52.740;6.784;2023-03-21T05:46:32;33.58;;;19.55;;
59300;SDS011;45073;52.740;6.784;2023-03-21T05:48:58;30.60;;;18.67;;
59300;SDS011;45073;52.740;6.784;2023-03-21T05:51:24;28.90;;;17.23;;
59300;SDS011;45073;52.740;6.784;2023-03-21T05:53:50;34.70;;;19.75;;
59300;SDS011;45073;52.740;6.784;2023-03-21T05:56:16;31.60;;;18.63;;
59300;SDS011;45073;52.740;6.784;2023-03-21T05:58:41;30.98;;;17.70;;
59300;SDS011;45073;52.740;6.784;2023-03-21T06:01:07;26.25;;;16.30;;
59300;SDS011;45073;52.740;6.784;2023-03-21T06:03:34;27.42;;;15.63;;
59300;SDS011;45073;52.740;6.784;2023-03-21T06:05:59;24.45;;;15.02;;
59300;SDS011;45073;52.740;6.784;2023-03-21T06:08:27;25.40;;;15.65;;
59300;SDS011;45073;52.740;6.784;2023-03-21T06:10:53;27.30;;;16.08;;
59300;SDS011;45073;52.740;6.784;2023-03-21T06:13:19;28.25;;;16.10;;
59300;SDS011;45073;52.740;6.784;2023-03-21T06:15:46;27.50;;;16.45;;
59300;SDS011;45073;52.740;6.784;2023-03-21T06:18:11;28.55;;;16.63;;
59300;SDS011;45073;52.740;6.784;2023-03-21T06:20:37;28.48;;;17.83;;
59300;SDS011;45073;52.740;6.784;2023-03-21T06:23:03;29.83;;;17.45;;
59300;SDS011;45073;52.740;6.784;2023-03-21T06:25:29;28.00;;;16.65;;
59300;SDS011;45073;52.740;6.784;2023-03-21T06:27:55;25.67;;;16.08;;
59300;SDS011;45073;52.740;6.784;2023-03-21T06:30:20;26.77;;;16.10;;
59300;SDS011;45073;52.740;6.784;2023-03-21T06:32:46;26.70;;;15.98;;
59300;SDS011;45073;52.740;6.784;2023-03-21T06:35:12;26.95;;;16.27;;
59300;SDS011;45073;52.740;6.784;2023-03-21T06:37:37;24.90;;;14.93;;
59300;SDS011;45073;52.740;6.784;2023-03-21T06:40:03;23.63;;;14.73;;
59300;SDS011;45073;52.740;6.784;2023-03-21T06:42:30;22.50;;;14.05;;
59300;SDS011;45073;52.740;6.784;2023-03-21T06:44:56;24.75;;;14.88;;
59300;SDS011;45073;52.740;6.784;2023-03-21T06:47:22;24.13;;;14.50;;
59300;SDS011;45073;52.740;6.784;2023-03-21T06:49:48;22.30;;;13.95;;
59300;SDS011;45073;52.740;6.784;2023-03-21T06:52:14;22.52;;;12.80;;
59300;SDS011;45073;52.740;6.784;2023-03-21T06:54:40;24.27;;;13.75;;
59300;SDS011;45073;52.740;6.784;2023-03-21T06:57:05;27.15;;;14.70;;
59300;SDS011;45073;52.740;6.784;2023-03-21T06:59:31;24.33;;;13.32;;
59300;SDS011;45073;52.740;6.784;2023-03-21T07:01:56;20.40;;;12.25;;
59300;SDS011;45073;52.740;6.784;2023-03-21T07:04:22;20.35;;;12.02;;
59300;SDS011;45073;52.740;6.784;2023-03-21T07:06:48;21.48;;;12.35;;
59300;SDS011;45073;52.740;6.784;2023-03-21T07:09:14;20.17;;;12.23;;
59300;SDS011;45073;52.740;6.784;2023-03-21T07:11:41;18.98;;;11.45;;
59300;SDS011;45073;52.740;6.784;2023-03-21T07:14:07;24.02;;;13.73;;
59300;SDS011;45073;52.740;6.784;2023-03-21T07:16:33;21.95;;;12.65;;
59300;SDS011;45073;52.740;6.784;2023-03-21T07:18:58;22.10;;;12.15;;
59300;SDS011;45073;52.740;6.784;2023-03-21T07:21:24;18.58;;;11.05;;
59300;SDS011;45073;52.740;6.784;2023-03-21T07:23:50;19.15;;;12.30;;
59300;SDS011;45073;52.740;6.784;2023-03-21T07:26:15;18.70;;;11.38;;
59300;SDS011;45073;52.740;6.784;2023-03-21T07:28:42;18.65;;;10.68;;
59300;SDS011;45073;52.740;6.784;2023-03-21T07:31:11;18.42;;;11.63;;
59300;SDS011;45073;52.740;6.784;2023-03-21T07:33:39;20.15;;;10.90;;
59300;SDS011;45073;52.740;6.784;2023-03-21T07:36:07;20.85;;;12.00;;
59300;SDS011;45073;52.740;6.784;2023-03-21T07:38:39;20.65;;;11.70;;
59300;SDS011;45073;52.740;6.784;2023-03-21T07:41:05;21.33;;;11.85;;
59300;SDS011;45073;52.740;6.784;2023-03-21T07:43:30;20.70;;;12.32;;
59300;SDS011;45073;52.740;6.784;2023-03-21T07:45:56;19.95;;;11.23;;
59300;SDS011;45073;52.740;6.784;2023-03-21T07:48:22;18.92;;;11.73;;
59300;SDS011;45073;52.740;6.784;2023-03-21T07:50:48;24.08;;;12.35;;
59300;SDS011;45073;52.740;6.784;2023-03-21T07:53:14;25.55;;;13.27;;
59300;SDS011;45073;52.740;6.784;2023-03-21T07:55:40;18.80;;;10.68;;
59300;SDS011;45073;52.740;6.784;2023-03-21T07:58:05;24.02;;;12.85;;
59300;SDS011;45073;52.740;6.784;2023-03-21T08:00:31;21.20;;;12.07;;
59300;SDS011;45073;52.740;6.784;2023-03-21T08:02:57;20.75;;;11.68;;
59300;SDS011;45073;52.740;6.784;2023-03-21T08:05:28;20.80;;;11.93;;
59300;SDS011;45073;52.740;6.784;2023-03-21T08:07:57;21.75;;;11.65;;
59300;SDS011;45073;52.740;6.784;2023-03-21T08:10:23;20.20;;;12.15;;
59300;SDS011;45073;52.740;6.784;2023-03-21T08:12:48;18.90;;;11.50;;
59300;SDS011;45073;52.740;6.784;2023-03-21T08:15:14;22.73;;;11.13;;
59300;SDS011;45073;52.740;6.784;2023-03-21T08:17:40;18.77;;;11.43;;
59300;SDS011;45073;52.740;6.784;2023-03-21T08:20:10;22.17;;;11.98;;
59300;SDS011;45073;52.740;6.784;2023-03-21T08:22:38;20.45;;;11.23;;
59300;SDS011;45073;52.740;6.784;2023-03-21T08:25:04;16.83;;;9.93;;
59300;SDS011;45073;52.740;6.784;2023-03-21T08:27:32;17.20;;;9.25;;
59300;SDS011;45073;52.740;6.784;2023-03-21T08:29:58;17.77;;;9.23;;
59300;SDS011;45073;52.740;6.784;2023-03-21T08:32:24;17.73;;;9.10;;
59300;SDS011;45073;52.740;6.784;2023-03-21T08:34:57;21.10;;;10.48;;
59300;SDS011;45073;52.740;6.784;2023-03-21T08:37:26;18.42;;;8.95;;
59300;SDS011;45073;52.740;6.784;2023-03-21T08:39:52;22.30;;;11.90;;
59300;SDS011;45073;52.740;6.784;2023-03-21T08:42:18;18.73;;;9.88;;
59300;SDS011;45073;52.740;6.784;2023-03-21T08:44:45;20.30;;;9.77;;
59300;SDS011;45073;52.740;6.784;2023-03-21T08:47:11;24.67;;;10.88;;
59300;SDS011;45073;52.740;6.784;2023-03-21T08:49:37;21.20;;;10.45;;
59300;SDS011;45073;52.740;6.784;2023-03-21T08:52:03;21.05;;;10.30;;
59300;SDS011;45073;52.740;6.784;2023-03-21T08:54:30;20.00;;;11.07;;
59300;SDS011;45073;52.740;6.784;2023-03-21T08:56:55;24.48;;;10.63;;
59300;SDS011;45073;52.740;6.784;2023-03-21T08:59:21;21.70;;;11.57;;
59300;SDS011;45073;52.740;6.784;2023-03-21T09:01:47;17.90;;;9.68;;
59300;SDS011;45073;52.740;6.784;2023-03-21T09:04:12;23.88;;;10.60;;
59300;SDS011;45073;52.740;6.784;2023-03-21T09:06:39;22.05;;;9.98;;
59300;SDS011;45073;52.740;6.784;2023-03-21T09:09:11;19.50;;;10.05;;
59300;SDS011;45073;52.740;6.784;2023-03-21T09:11:36;18.23;;;10.68;;
59300;SDS011;45073;52.740;6.784;2023-03-21T09:14:02;22.42;;;10.73;;
59300;SDS011;45073;52.740;6.784;2023-03-21T09:16:29;17.63;;;9.82;;
59300;SDS011;45073;52.740;6.784;2023-03-21T09:18:55;21.38;;;11.32;;
59300;SDS011;45073;52.740;6.784;2023-03-21T09:21:23;20.90;;;10.23;;
59300;SDS011;45073;52.740;6.784;2023-03-21T09:23:50;15.63;;;8.60;;
59300;SDS011;45073;52.740;6.784;2023-03-21T09:26:18;17.95;;;10.88;;
59300;SDS011;45073;52.740;6.784;2023-03-21T09:28:44;18.27;;;9.93;;
59300;SDS011;45073;52.740;6.784;2023-03-21T09:31:11;23.70;;;10.18;;
59300;SDS011;45073;52.740;6.784;2023-03-21T09:33:41;24.45;;;10.32;;
59300;SDS011;45073;52.740;6.784;2023-03-21T09:36:08;21.83;;;10.05;;
59300;SDS011;45073;52.740;6.784;2023-03-21T09:38:36;20.30;;;10.25;;
59300;SDS011;45073;52.740;6.784;2023-03-21T09:49:17;17.77;;;9.90;;
59300;SDS011;45073;52.740;6.784;2023-03-21T09:51:47;17.48;;;9.85;;
59300;SDS011;45073;52.740;6.784;2023-03-21T09:54:25;23.10;;;10.65;;
59300;SDS011;45073;52.740;6.784;2023-03-21T09:56:58;21.98;;;10.50;;
59300;SDS011;45073;52.740;6.784;2023-03-21T09:59:38;22.65;;;10.93;;
59300;SDS011;45073;52.740;6.784;2023-03-21T10:02:19;20.90;;;11.45;;
59300;SDS011;45073;52.740;6.784;2023-03-21T10:05:10;24.48;;;11.80;;
59300;SDS011;45073;52.740;6.784;2023-03-21T10:10:13;20.15;;;10.48;;
59300;SDS011;45073;52.740;6.784;2023-03-21T10:12:41;21.38;;;9.90;;
59300;SDS011;45073;52.740;6.784;2023-03-21T10:15:09;21.00;;;11.55;;
59300;SDS011;45073;52.740;6.784;2023-03-21T10:17:40;20.48;;;10.38;;
59300;SDS011;45073;52.740;6.784;2023-03-21T10:20:16;19.75;;;10.32;;
59300;SDS011;45073;52.740;6.784;2023-03-21T10:22:43;17.40;;;9.77;;
59300;SDS011;45073;52.740;6.784;2023-03-21T10:25:12;19.80;;;11.40;;
59300;SDS011;45073;52.740;6.784;2023-03-21T10:27:42;19.88;;;10.35;;
59300;SDS011;45073;52.740;6.784;2023-03-21T10:30:08;17.73;;;10.05;;
59300;SDS011;45073;52.740;6.784;2023-03-21T10:32:46;24.00;;;10.57;;
59300;SDS011;45073;52.740;6.784;2023-03-21T10:35:12;22.95;;;11.13;;
59300;SDS011;45073;52.740;6.784;2023-03-21T10:37:38;19.05;;;10.68;;
59300;SDS011;45073;52.740;6.784;2023-03-21T10:40:05;20.83;;;10.02;;
59300;SDS011;45073;52.740;6.784;2023-03-21T10:42:33;19.05;;;10.60;;
59300;SDS011;45073;52.740;6.784;2023-03-21T10:45:00;19.98;;;11.00;;
59300;SDS011;45073;52.740;6.784;2023-03-21T10:47:30;22.83;;;10.45;;
59300;SDS011;45073;52.740;6.784;2023-03-21T10:50:04;22.63;;;11.02;;
59300;SDS011;45073;52.740;6.784;2023-03-21T10:52:32;21.80;;;10.80;;
59300;SDS011;45073;52.740;6.784;2023-03-21T10:55:06;21.75;;;11.25;;
59300;SDS011;45073;52.740;6.784;2023-03-21T10:57:41;19.75;;;10.05;;
59300;SDS011;45073;52.740;6.784;2023-03-21T11:00:09;21.75;;;11.50;;
59300;SDS011;45073;52.740;6.784;2023-03-21T11:02:49;19.77;;;9.93;;
59300;SDS011;45073;52.740;6.784;2023-03-21T11:05:32;18.92;;;10.38;;
59300;SDS011;45073;52.740;6.784;2023-03-21T11:08:14;19.33;;;10.35;;
59300;SDS011;45073;52.740;6.784;2023-03-21T11:13:41;17.90;;;9.02;;
59300;SDS011;45073;52.740;6.784;2023-03-21T11:18:44;15.82;;;8.45;;
59300;SDS011;45073;52.740;6.784;2023-03-21T11:21:15;17.10;;;8.38;;
59300;SDS011;45073;52.740;6.784;2023-03-21T11:23:45;18.77;;;9.05;;
59300;SDS011;45073;52.740;6.784;2023-03-21T11:26:18;17.33;;;7.88;;
59300;SDS011;45073;52.740;6.784;2023-03-21T11:29:17;18.25;;;8.02;;
59300;SDS011;45073;52.740;6.784;2023-03-21T11:31:50;14.73;;;7.03;;
59300;SDS011;45073;52.740;6.784;2023-03-21T11:34:23;16.92;;;7.78;;
59300;SDS011;45073;52.740;6.784;2023-03-21T11:36:52;16.73;;;7.63;;
59300;SDS011;45073;52.740;6.784;2023-03-21T11:42:08;13.38;;;6.40;;
59300;SDS011;45073;52.740;6.784;2023-03-21T11:45:02;13.10;;;6.65;;
59300;SDS011;45073;52.740;6.784;2023-03-21T11:47:35;13.63;;;6.55;;
59300;SDS011;45073;52.740;6.784;2023-03-21T11:50:01;14.48;;;6.82;;
59300;SDS011;45073;52.740;6.784;2023-03-21T11:58:31;14.73;;;6.45;;
59300;SDS011;45073;52.740;6.784;2023-03-21T12:01:12;13.05;;;5.95;;
59300;SDS011;45073;52.740;6.784;2023-03-21T12:06:36;17.15;;;7.22;;
59300;SDS011;45073;52.740;6.784;2023-03-21T12:12:26;13.02;;;6.10;;
59300;SDS011;45073;52.740;6.784;2023-03-21T12:15:26;14.05;;;6.00;;
59300;SDS011;45073;52.740;6.784;2023-03-21T12:20:47;15.43;;;6.55;;
59300;SDS011;45073;52.740;6.784;2023-03-21T12:39:34;14.43;;;5.75;;
59300;SDS011;45073;52.740;6.784;2023-03-21T12:42:08;11.05;;;5.50;;
59300;SDS011;45073;52.740;6.784;2023-03-21T12:45:01;12.23;;;5.53;;
59300;SDS011;45073;52.740;6.784;2023-03-21T12:47:29;11.90;;;5.95;;
59300;SDS011;45073;52.740;6.784;2023-03-21T12:52:40;13.75;;;5.55;;
59300;SDS011;45073;52.740;6.784;2023-03-21T13:00:47;15.27;;;7.47;;
59300;SDS011;45073;52.740;6.784;2023-03-21T13:03:21;12.13;;;6.40;;
59300;SDS011;45073;52.740;6.784;2023-03-21T13:06:04;12.20;;;5.55;;
59300;SDS011;45073;52.740;6.784;2023-03-21T13:08:41;14.20;;;6.15;;
59300;SDS011;45073;52.740;6.784;2023-03-21T13:11:30;12.10;;;5.95;;
59300;SDS011;45073;52.740;6.784;2023-03-21T13:14:10;13.68;;;6.57;;
59300;SDS011;45073;52.740;6.784;2023-03-21T13:19:25;14.75;;;6.55;;
59300;SDS011;45073;52.740;6.784;2023-03-21T13:21:59;16.13;;;6.97;;
59300;SDS011;45073;52.740;6.784;2023-03-21T13:24:42;12.57;;;6.47;;
59300;SDS011;45073;52.740;6.784;2023-03-21T13:27:26;14.25;;;6.82;;
59300;SDS011;45073;52.740;6.784;2023-03-21T13:29:57;15.00;;;8.60;;
59300;SDS011;45073;52.740;6.784;2023-03-21T13:32:31;11.93;;;6.53;;
59300;SDS011;45073;52.740;6.784;2023-03-21T13:37:41;11.13;;;6.00;;
59300;SDS011;45073;52.740;6.784;2023-03-21T13:40:27;13.68;;;6.47;;
59300;SDS011;45073;52.740;6.784;2023-03-21T13:42:59;13.27;;;6.05;;
59300;SDS011;45073;52.740;6.784;2023-03-21T13:45:31;12.93;;;6.47;;
59300;SDS011;45073;52.740;6.784;2023-03-21T13:48:24;14.73;;;6.57;;
59300;SDS011;45073;52.740;6.784;2023-03-21T13:51:00;12.55;;;6.53;;
59300;SDS011;45073;52.740;6.784;2023-03-21T13:56:08;16.27;;;6.32;;
59300;SDS011;45073;52.740;6.784;2023-03-21T14:03:55;12.93;;;6.00;;
59300;SDS011;45073;52.740;6.784;2023-03-21T14:06:37;14.95;;;6.25;;
59300;SDS011;45073;52.740;6.784;2023-03-21T14:09:32;12.68;;;5.90;;
59300;SDS011;45073;52.740;6.784;2023-03-21T14:12:05;12.02;;;6.28;;
59300;SDS011;45073;52.740;6.784;2023-03-21T14:14:38;12.88;;;6.13;;
59300;SDS011;45073;52.740;6.784;2023-03-21T14:17:14;13.88;;;6.90;;
59300;SDS011;45073;52.740;6.784;2023-03-21T14:19:51;15.45;;;6.15;;
59300;SDS011;45073;52.740;6.784;2023-03-21T14:22:23;15.30;;;6.55;;
59300;SDS011;45073;52.740;6.784;2023-03-21T14:24:58;13.20;;;7.70;;
59300;SDS011;45073;52.740;6.784;2023-03-21T14:27:30;12.88;;;5.68;;
59300;SDS011;45073;52.740;6.784;2023-03-21T14:29:57;14.23;;;6.20;;
59300;SDS011;45073;52.740;6.784;2023-03-21T14:32:25;13.15;;;5.75;;
59300;SDS011;45073;52.740;6.784;2023-03-21T14:34:53;13.20;;;7.57;;
59300;SDS011;45073;52.740;6.784;2023-03-21T14:37:30;14.07;;;7.70;;
59300;SDS011;45073;52.740;6.784;2023-03-21T14:40:01;11.32;;;5.25;;
59300;SDS011;45073;52.740;6.784;2023-03-21T14:42:44;11.27;;;5.15;;
59300;SDS011;45073;52.740;6.784;2023-03-21T14:45:17;16.60;;;7.18;;
59300;SDS011;45073;52.740;6.784;2023-03-21T14:47:53;10.57;;;5.22;;
59300;SDS011;45073;52.740;6.784;2023-03-21T14:50:24;13.63;;;6.95;;
59300;SDS011;45073;52.740;6.784;2023-03-21T14:52:56;13.95;;;7.20;;
59300;SDS011;45073;52.740;6.784;2023-03-21T14:55:23;16.02;;;6.80;;
59300;SDS011;45073;52.740;6.784;2023-03-21T14:57:49;12.75;;;7.13;;
59300;SDS011;45073;52.740;6.784;2023-03-21T15:00:23;12.00;;;4.82;;
59300;SDS011;45073;52.740;6.784;2023-03-21T15:02:51;10.27;;;5.20;;
59300;SDS011;45073;52.740;6.784;2023-03-21T15:05:20;12.77;;;5.93;;
59300;SDS011;45073;52.740;6.784;2023-03-21T15:07:53;13.57;;;7.43;;
59300;SDS011;45073;52.740;6.784;2023-03-21T15:10:25;12.70;;;7.38;;
59300;SDS011;45073;52.740;6.784;2023-03-21T15:12:54;11.13;;;6.05;;
59300;SDS011;45073;52.740;6.784;2023-03-21T15:15:22;13.82;;;5.95;;
59300;SDS011;45073;52.740;6.784;2023-03-21T15:17:50;12.95;;;5.88;;
59300;SDS011;45073;52.740;6.784;2023-03-21T15:20:18;12.68;;;6.00;;
59300;SDS011;45073;52.740;6.784;2023-03-21T15:22:47;11.57;;;5.30;;
59300;SDS011;45073;52.740;6.784;2023-03-21T15:25:27;11.02;;;5.75;;
59300;SDS011;45073;52.740;6.784;2023-03-21T15:27:59;13.15;;;6.03;;
59300;SDS011;45073;52.740;6.784;2023-03-21T15:30:26;12.25;;;5.75;;
59300;SDS011;45073;52.740;6.784;2023-03-21T15:32:54;15.85;;;8.10;;
59300;SDS011;45073;52.740;6.784;2023-03-21T15:35:34;11.73;;;5.43;;
59300;SDS011;45073;52.740;6.784;2023-03-21T15:38:02;13.95;;;6.45;;
59300;SDS011;45073;52.740;6.784;2023-03-21T15:40:29;13.93;;;7.95;;
59300;SDS011;45073;52.740;6.784;2023-03-21T15:43:11;11.82;;;5.00;;
59300;SDS011;45073;52.740;6.784;2023-03-21T15:46:12;11.57;;;5.35;;
59300;SDS011;45073;52.740;6.784;2023-03-21T15:48:37;11.02;;;5.43;;
59300;SDS011;45073;52.740;6.784;2023-03-21T15:51:04;11.40;;;5.43;;
59300;SDS011;45073;52.740;6.784;2023-03-21T15:53:35;11.98;;;6.07;;
59300;SDS011;45073;52.740;6.784;2023-03-21T15:56:03;13.27;;;5.90;;
59300;SDS011;45073;52.740;6.784;2023-03-21T15:58:37;12.60;;;7.70;;
59300;SDS011;45073;52.740;6.784;2023-03-21T16:01:11;12.13;;;5.88;;
59300;SDS011;45073;52.740;6.784;2023-03-21T16:03:41;9.85;;;5.57;;
59300;SDS011;45073;52.740;6.784;2023-03-21T16:06:22;12.95;;;6.68;;
59300;SDS011;45073;52.740;6.784;2023-03-21T16:09:05;11.57;;;6.60;;
59300;SDS011;45073;52.740;6.784;2023-03-21T16:14:04;13.00;;;7.20;;
59300;SDS011;45073;52.740;6.784;2023-03-21T16:16:29;12.73;;;5.70;;
59300;SDS011;45073;52.740;6.784;2023-03-21T16:18:56;12.85;;;5.50;;
59300;SDS011;45073;52.740;6.784;2023-03-21T16:21:24;13.32;;;6.05;;
59300;SDS011;45073;52.740;6.784;2023-03-21T16:23:52;13.32;;;5.80;;
59300;SDS011;45073;52.740;6.784;2023-03-21T16:26:23;13.80;;;7.40;;
59300;SDS011;45073;52.740;6.784;2023-03-21T16:29:12;11.45;;;5.25;;
59300;SDS011;45073;52.740;6.784;2023-03-21T16:31:39;12.48;;;5.95;;
59300;SDS011;45073;52.740;6.784;2023-03-21T16:34:06;11.25;;;5.65;;
59300;SDS011;45073;52.740;6.784;2023-03-21T16:36:32;15.00;;;8.15;;